createdAt,value
2024-03-11T00:03:42.469Z,18.60
2024-03-11T00:07:44.321Z,18.97
2024-03-11T00:11:46.163Z,20.00
2024-03-11T00:15:47.872Z,20.53
2024-03-11T00:19:50.945Z,20.30
2024-03-11T00:23:52.588Z,20.67
2024-03-11T00:27:54.281Z,21.57
2024-03-11T00:31:55.968Z,21.30
2024-03-11T00:35:59.052Z,22.77
2024-03-11T00:40:01.219Z,22.73
2024-03-11T00:44:02.879Z,23.13
2024-03-11T00:48:05.438Z,24.40
2024-03-11T00:52:08.472Z,23.93
2024-03-11T00:56:10.240Z,22.97
2024-03-11T01:00:13.452Z,24.53
2024-03-11T01:04:15.762Z,24.23
2024-03-11T01:08:19.634Z,24.37
2024-03-11T01:12:22.085Z,26.13
2024-03-11T01:16:23.989Z,25.33
2024-03-11T01:20:25.773Z,25.57
2024-03-11T01:24:29.007Z,25.87
2024-03-11T01:28:30.695Z,26.27
2024-03-11T01:32:32.618Z,26.80
2024-03-11T01:36:34.411Z,26.30
2024-03-11T01:40:37.489Z,26.70
2024-03-11T01:44:39.099Z,26.37
2024-03-11T01:48:40.878Z,25.87
2024-03-11T01:52:47.104Z,27.03
2024-03-11T01:56:50.030Z,26.77
2024-03-11T02:00:51.748Z,26.10
2024-03-11T02:04:53.588Z,26.23
2024-03-11T02:08:55.346Z,25.03
2024-03-11T02:12:58.709Z,24.93
2024-03-11T02:17:01.245Z,24.03
2024-03-11T02:21:03.352Z,23.27
2024-03-11T02:25:06.977Z,22.17
2024-03-11T02:29:08.584Z,21.00
2024-03-11T02:33:10.372Z,23.07
2024-03-11T02:37:12.151Z,22.50
2024-03-11T02:41:15.355Z,22.77
2024-03-11T02:45:17.307Z,22.80
2024-03-11T02:49:20.249Z,21.43
2024-03-11T02:53:21.896Z,21.07
2024-03-11T02:57:24.977Z,20.77
2024-03-11T03:01:26.600Z,21.00
2024-03-11T03:05:28.276Z,19.97
2024-03-11T03:09:29.920Z,19.40
2024-03-11T03:13:32.987Z,19.33
2024-03-11T03:17:35.232Z,17.57
2024-03-11T03:21:37.062Z,18.67
2024-03-11T03:25:38.819Z,16.73
2024-03-11T03:29:41.918Z,17.63
2024-03-11T03:33:43.583Z,16.07
2024-03-11T03:37:45.239Z,15.13
2024-03-11T03:41:47.087Z,14.77
2024-03-11T03:45:50.026Z,14.13
2024-03-11T03:49:51.594Z,13.37
2024-03-11T03:53:53.718Z,13.67
2024-03-11T03:57:55.994Z,11.97
2024-03-11T04:01:59.960Z,12.17
2024-03-11T04:06:01.653Z,12.57
2024-03-11T04:10:03.853Z,11.37
2024-03-11T04:14:05.495Z,11.77
2024-03-11T04:18:08.509Z,5.40
2024-03-11T04:22:10.238Z,4.00
2024-03-11T04:26:12.167Z,3.20
2024-03-11T04:30:14.129Z,2.90
2024-03-11T04:34:17.268Z,2.20
2024-03-11T04:38:19.082Z,2.10
2024-03-11T04:42:21.045Z,2.20
2024-03-11T04:46:22.662Z,2.00
2024-03-11T04:50:26.689Z,2.33
2024-03-11T04:54:28.657Z,3.93
2024-03-11T04:58:30.366Z,4.73
2024-03-11T05:02:32.205Z,4.13
2024-03-11T05:06:36.556Z,4.57
2024-03-11T05:10:38.181Z,8.93
2024-03-11T05:14:39.908Z,8.10
2024-03-11T05:18:41.635Z,5.13
2024-03-11T05:22:46.288Z,4.90
2024-03-11T05:26:47.922Z,3.80
2024-03-11T05:30:49.639Z,5.83
2024-03-11T05:34:51.810Z,5.27
2024-03-11T05:38:54.846Z,9.43
2024-03-11T05:42:56.802Z,13.20
2024-03-11T05:46:58.526Z,16.33
2024-03-11T05:51:01.230Z,23.83
2024-03-11T05:55:07.259Z,28.20
2024-03-11T05:59:09.071Z,28.57
2024-03-11T06:03:10.832Z,29.37
2024-03-11T06:07:12.821Z,28.83
2024-03-11T06:11:16.467Z,21.40
2024-03-11T06:15:19.797Z,18.53
2024-03-11T06:19:21.489Z,15.50
2024-03-11T06:23:23.403Z,17.83
2024-03-11T06:27:26.462Z,15.27
2024-03-11T06:31:28.629Z,13.60
2024-03-11T06:35:30.592Z,16.10
2024-03-11T06:39:33.502Z,16.07
2024-03-11T06:43:38.134Z,13.37
2024-03-11T06:47:39.920Z,9.37
2024-03-11T06:51:42.782Z,8.23
2024-03-11T06:55:44.670Z,5.80
2024-03-11T06:59:47.750Z,5.80
2024-03-11T07:03:49.425Z,5.23
2024-03-11T07:07:51.404Z,4.90
2024-03-11T07:11:53.404Z,4.70
2024-03-11T07:15:56.765Z,4.33
2024-03-11T07:19:58.363Z,4.00
2024-03-11T07:23:59.939Z,3.70
2024-03-11T07:28:01.728Z,3.70
2024-03-11T07:32:05.462Z,3.80
2024-03-11T07:36:07.665Z,3.67
2024-03-11T07:40:09.854Z,3.97
2024-03-11T07:44:11.451Z,3.80
2024-03-11T07:48:15.904Z,3.50
2024-03-11T07:52:17.616Z,3.47
2024-03-11T07:56:20.504Z,4.30
2024-03-11T08:00:23.435Z,3.90
2024-03-11T08:04:26.531Z,3.57
2024-03-11T08:08:28.303Z,3.70
2024-03-11T08:12:30.371Z,3.30
2024-03-11T08:16:32.056Z,2.70
2024-03-11T08:20:35.315Z,2.57
2024-03-11T08:24:38.557Z,2.50
2024-03-11T08:28:40.695Z,2.10
2024-03-11T08:32:42.404Z,2.03
2024-03-11T08:36:46.497Z,1.80
2024-03-11T08:40:48.231Z,1.80
2024-03-11T08:44:50.483Z,1.77
2024-03-11T08:48:52.455Z,1.83
2024-03-11T08:52:55.595Z,1.70
2024-03-11T08:56:58.204Z,2.13
2024-03-11T09:00:59.877Z,2.20
2024-03-11T09:05:01.521Z,2.20
2024-03-11T09:09:04.921Z,2.40
2024-03-11T09:13:06.494Z,2.30
2024-03-11T09:17:08.358Z,2.53
2024-03-11T09:21:10.129Z,2.10
2024-03-11T09:25:14.216Z,2.27
2024-03-11T09:29:15.944Z,1.93
2024-03-11T09:33:17.807Z,1.90
2024-03-11T09:37:20.584Z,1.90
2024-03-11T09:41:26.157Z,1.70
2024-03-11T09:45:30.813Z,1.70
2024-03-11T09:49:33.393Z,1.40
2024-03-11T09:53:36.427Z,1.30
2024-03-11T09:57:39.604Z,1.20
2024-03-11T10:01:41.928Z,1.30
2024-03-11T10:05:43.973Z,0.80
2024-03-11T10:09:45.748Z,0.80
2024-03-11T10:13:49.101Z,0.90
2024-03-11T10:17:51.816Z,0.67
2024-03-11T10:22:02.612Z,1.00
2024-03-11T10:26:08.677Z,0.80
2024-03-11T10:30:22.815Z,0.90
2024-03-11T10:34:24.711Z,1.03
2024-03-11T10:38:26.412Z,1.20
2024-03-11T10:42:29.035Z,1.20
2024-03-11T10:46:33.241Z,1.40
2024-03-11T10:50:36.599Z,1.40
2024-03-11T10:54:44.431Z,1.40
2024-03-11T10:58:54.486Z,1.50
2024-03-11T11:03:01.233Z,1.50
2024-03-11T11:07:04.987Z,1.30
2024-03-11T11:11:08.017Z,1.50
2024-03-11T11:15:11.790Z,1.40
2024-03-11T11:19:18.567Z,1.40
2024-03-11T11:23:27.101Z,1.50
2024-03-11T11:27:29.017Z,1.70
2024-03-11T11:31:30.945Z,1.30
2024-03-11T11:35:35.188Z,1.40
2024-03-11T11:39:36.963Z,1.40
2024-03-11T11:43:46.223Z,1.50
2024-03-11T11:47:48.965Z,1.33
2024-03-11T11:51:52.214Z,1.20
2024-03-11T11:55:55.035Z,1.00
2024-03-11T11:59:58.148Z,1.10
2024-03-11T12:04:07.524Z,1.10
2024-03-11T12:08:20.527Z,0.90
2024-03-11T12:12:27.381Z,0.97
2024-03-11T12:16:29.130Z,1.00
2024-03-11T12:20:30.843Z,1.07
2024-03-11T12:24:33.931Z,1.10
2024-03-11T12:28:35.658Z,0.90
2024-03-11T12:32:37.328Z,0.90
2024-03-11T12:36:41.009Z,0.90
2024-03-11T12:40:45.970Z,0.90
2024-03-11T12:44:54.582Z,1.00
2024-03-11T12:48:56.466Z,1.10
2024-03-11T12:53:01.154Z,1.03
2024-03-11T12:57:09.099Z,1.10
2024-03-11T13:01:11.508Z,1.10
2024-03-11T13:05:14.690Z,1.00
2024-03-11T13:09:19.911Z,0.90
2024-03-11T13:13:22.908Z,1.00
2024-03-11T13:17:24.802Z,0.90
2024-03-11T13:21:26.612Z,1.07
2024-03-11T13:25:28.742Z,1.07
2024-03-11T13:29:32.009Z,0.80
2024-03-11T13:33:33.648Z,0.90
2024-03-11T13:37:35.294Z,0.70
2024-03-11T13:41:37.374Z,0.80
2024-03-11T13:45:47.666Z,1.00
2024-03-11T13:49:49.512Z,0.90
2024-03-11T13:53:51.233Z,0.90
2024-03-11T13:57:53.012Z,0.90
2024-03-11T14:01:56.384Z,1.10
2024-03-11T14:05:58.555Z,1.27
2024-03-11T14:10:00.722Z,1.23
2024-03-11T14:14:02.505Z,1.10
2024-03-11T14:18:06.302Z,1.40
2024-03-11T14:22:08.196Z,1.10
2024-03-11T14:26:10.100Z,1.30
2024-03-11T14:30:13.426Z,1.10
2024-03-11T14:34:16.480Z,1.30
2024-03-11T14:38:18.330Z,1.27
2024-03-11T14:42:20.372Z,1.57
2024-03-11T14:46:22.160Z,1.40
2024-03-11T14:50:25.173Z,1.30
2024-03-11T14:54:27.865Z,1.20
2024-03-11T14:58:30.368Z,1.40
2024-03-11T15:02:32.304Z,1.20
2024-03-11T15:06:35.547Z,1.53
2024-03-11T15:10:37.485Z,1.50
2024-03-11T15:14:39.362Z,1.80
2024-03-11T15:18:40.967Z,1.97
2024-03-11T15:22:44.302Z,1.73
2024-03-11T15:26:47.838Z,1.97
2024-03-11T15:30:50.142Z,1.90
2024-03-11T15:34:51.848Z,2.17
2024-03-11T15:38:55.467Z,2.13
2024-03-11T15:42:57.126Z,2.00
2024-03-11T15:46:59.045Z,2.03
2024-03-11T15:51:00.813Z,2.00
2024-03-11T15:55:04.356Z,1.90
2024-03-11T15:59:06.407Z,1.87
2024-03-11T16:03:09.279Z,1.80
2024-03-11T16:07:11.944Z,2.20
2024-03-11T16:11:15.217Z,2.00
2024-03-11T16:15:17.777Z,2.13
2024-03-11T16:19:20.424Z,2.17
2024-03-11T16:23:22.217Z,2.10
2024-03-11T16:27:27.790Z,1.90
2024-03-11T16:31:30.518Z,1.90
2024-03-11T16:35:33.011Z,1.80
2024-03-11T16:39:35.029Z,2.00
2024-03-11T16:43:38.207Z,1.80
2024-03-11T16:47:40.827Z,2.20
2024-03-11T16:51:42.688Z,2.30
2024-03-11T16:55:44.591Z,2.10
2024-03-11T16:59:47.615Z,2.10
2024-03-11T17:03:49.475Z,2.40
2024-03-11T17:07:52.424Z,2.57
2024-03-11T17:11:54.044Z,2.83
2024-03-11T17:15:57.265Z,4.37
2024-03-11T17:19:59.145Z,3.47
2024-03-11T17:24:00.785Z,4.33
2024-03-11T17:28:04.485Z,4.17
2024-03-11T17:32:08.479Z,3.77
2024-03-11T17:36:10.380Z,3.87
2024-03-11T17:40:13.059Z,3.87
2024-03-11T17:44:14.700Z,3.70
2024-03-11T17:48:18.975Z,4.30
2024-03-11T17:52:21.169Z,3.87
2024-03-11T17:56:23.159Z,4.53
2024-03-11T18:00:26.430Z,4.50
2024-03-11T18:04:29.522Z,4.87
2024-03-11T18:08:31.330Z,4.00
2024-03-11T18:12:33.300Z,4.40
2024-03-11T18:16:35.045Z,4.50
2024-03-11T18:20:38.847Z,4.40
2024-03-11T18:24:40.616Z,4.67
2024-03-11T18:28:44.883Z,5.73
2024-03-11T18:32:48.987Z,5.13
2024-03-11T18:36:52.041Z,4.87
2024-03-11T18:40:53.737Z,4.50
2024-03-11T18:44:55.401Z,4.20
2024-03-11T18:48:57.159Z,4.23
2024-03-11T18:53:01.791Z,3.80
2024-03-11T18:57:04.721Z,3.93
2024-03-11T19:01:06.630Z,4.20
2024-03-11T19:05:08.852Z,3.67
2024-03-11T19:09:12.238Z,3.30
2024-03-11T19:13:13.894Z,3.17
2024-03-11T19:17:17.347Z,3.33
2024-03-11T19:21:19.486Z,3.10
2024-03-11T19:25:22.933Z,3.37
2024-03-11T19:29:24.653Z,3.07
2024-03-11T19:33:26.431Z,2.93
2024-03-11T19:37:53.936Z,5.87
2024-03-11T19:42:11.125Z,9.47
2024-03-11T19:46:42.736Z,3.50
2024-03-11T19:51:42.464Z,3.20
2024-03-11T19:56:21.786Z,3.30
2024-03-11T20:01:03.658Z,2.80
2024-03-11T20:05:48.038Z,3.37
2024-03-11T20:10:43.479Z,2.87
2024-03-11T20:14:49.652Z,2.80
2024-03-11T20:19:20.493Z,3.00
2024-03-11T20:24:10.174Z,3.20
2024-03-11T20:28:18.644Z,3.13
2024-03-11T20:32:30.110Z,3.00
2024-03-11T20:36:33.632Z,3.57
2024-03-11T20:40:35.427Z,3.50
2024-03-11T20:44:37.165Z,4.03
2024-03-11T20:48:39.267Z,3.40
2024-03-11T20:52:46.415Z,4.10
2024-03-11T20:56:49.409Z,3.90
2024-03-11T21:00:51.370Z,4.27
2024-03-11T21:04:53.521Z,3.97
2024-03-11T21:08:56.782Z,3.83
2024-03-11T21:12:59.047Z,4.00
2024-03-11T21:17:01.034Z,4.93
2024-03-11T21:21:02.801Z,3.40
2024-03-11T21:25:06.790Z,3.63
2024-03-11T21:29:08.582Z,3.40
2024-03-11T21:33:10.282Z,3.30
2024-03-11T21:37:11.962Z,3.40
2024-03-11T21:41:14.936Z,3.03
2024-03-11T21:45:16.972Z,2.90
2024-03-11T21:49:18.654Z,2.73
2024-03-11T21:53:20.318Z,3.30
2024-03-11T21:57:23.667Z,3.20
2024-03-11T22:01:25.410Z,2.93
2024-03-11T22:05:26.978Z,2.70
2024-03-11T22:09:28.682Z,2.13
2024-03-11T22:13:31.642Z,2.70
2024-03-11T22:17:33.509Z,2.97
2024-03-11T22:21:35.243Z,2.47
2024-03-11T22:25:37.003Z,2.20
2024-03-11T22:29:40.135Z,2.60
2024-03-11T22:33:41.935Z,2.60
2024-03-11T22:37:43.732Z,2.50
2024-03-11T22:41:45.943Z,2.57
2024-03-11T22:45:49.265Z,2.90
2024-03-11T22:49:51.071Z,2.97
2024-03-11T22:53:52.740Z,2.53
2024-03-11T22:57:54.318Z,2.70
2024-03-11T23:01:57.688Z,2.70
2024-03-11T23:05:59.329Z,2.77
2024-03-11T23:10:01.083Z,4.10
2024-03-11T23:14:02.895Z,3.40
2024-03-11T23:18:06.509Z,4.33
2024-03-11T23:22:08.370Z,4.23
2024-03-11T23:26:10.460Z,4.07
2024-03-11T23:30:13.462Z,4.73
2024-03-11T23:34:16.516Z,5.30
2024-03-11T23:38:18.369Z,6.97
2024-03-11T23:42:20.157Z,6.63
2024-03-11T23:46:21.802Z,6.67
2024-03-11T23:50:24.813Z,6.43
2024-03-11T23:54:26.521Z,7.47
2024-03-11T23:58:28.787Z,10.40
